sensor_id;sensor_type;location;lat;lon;timestamp;P1;durP1;ratioP1;P2;durP2;ratioP2
52734;SDS011;38631;47.572;10.704;2023-06-26T00:01:16;7.13;;;5.18;;
52734;SDS011;38631;47.572;10.704;2023-06-26T00:03:45;6.90;;;4.90;;
52734;SDS011;38631;47.572;10.704;2023-06-26T00:06:11;6.63;;;4.82;;
52734;SDS011;38631;47.572;10.704;2023-06-26T00:08:37;7.20;;;5.28;;
52734;SDS011;38631;47.572;10.704;2023-06-26T00:11:02;6.07;;;4.55;;
52734;SDS011;38631;47.572;10.704;2023-06-26T00:13:27;6.30;;;4.82;;
52734;SDS011;38631;47.572;10.704;2023-06-26T00:15:53;7.75;;;4.90;;
52734;SDS011;38631;47.572;10.704;2023-06-26T00:18:18;7.75;;;4.45;;
52734;SDS011;38631;47.572;10.704;2023-06-26T00:20:44;6.38;;;4.78;;
52734;SDS011;38631;47.572;10.704;2023-06-26T00:23:10;5.88;;;4.70;;
52734;SDS011;38631;47.572;10.704;2023-06-26T00:25:36;7.10;;;4.88;;
52734;SDS011;38631;47.572;10.704;2023-06-26T00:28:02;7.50;;;5.15;;
52734;SDS011;38631;47.572;10.704;2023-06-26T00:30:27;6.80;;;4.72;;
52734;SDS011;38631;47.572;10.704;2023-06-26T00:32:52;6.45;;;4.88;;
52734;SDS011;38631;47.572;10.704;2023-06-26T00:35:18;6.93;;;4.55;;
52734;SDS011;38631;47.572;10.704;2023-06-26T00:37:43;8.65;;;5.22;;
52734;SDS011;38631;47.572;10.704;2023-06-26T00:43:31;7.38;;;5.30;;
52734;SDS011;38631;47.572;10.704;2023-06-26T00:45:56;8.07;;;5.05;;
52734;SDS011;38631;47.572;10.704;2023-06-26T00:48:21;7.40;;;5.50;;
52734;SDS011;38631;47.572;10.704;2023-06-26T00:50:47;8.77;;;5.65;;
52734;SDS011;38631;47.572;10.704;2023-06-26T00:53:13;7.30;;;5.38;;
52734;SDS011;38631;47.572;10.704;2023-06-26T00:55:38;8.48;;;5.70;;
52734;SDS011;38631;47.572;10.704;2023-06-26T00:58:03;6.88;;;4.82;;
52734;SDS011;38631;47.572;10.704;2023-06-26T01:00:29;7.65;;;5.60;;
52734;SDS011;38631;47.572;10.704;2023-06-26T01:02:55;7.20;;;5.18;;
52734;SDS011;38631;47.572;10.704;2023-06-26T01:05:24;7.72;;;5.60;;
52734;SDS011;38631;47.572;10.704;2023-06-26T01:07:50;6.88;;;5.05;;
52734;SDS011;38631;47.572;10.704;2023-06-26T01:10:16;8.60;;;5.80;;
52734;SDS011;38631;47.572;10.704;2023-06-26T01:12:41;9.90;;;6.40;;
52734;SDS011;38631;47.572;10.704;2023-06-26T01:15:07;7.32;;;5.20;;
52734;SDS011;38631;47.572;10.704;2023-06-26T01:17:33;7.20;;;5.13;;
52734;SDS011;38631;47.572;10.704;2023-06-26T01:20:00;7.45;;;5.53;;
52734;SDS011;38631;47.572;10.704;2023-06-26T01:22:38;7.53;;;5.43;;
52734;SDS011;38631;47.572;10.704;2023-06-26T01:28:09;9.80;;;5.10;;
52734;SDS011;38631;47.572;10.704;2023-06-26T01:30:42;8.68;;;5.38;;
52734;SDS011;38631;47.572;10.704;2023-06-26T01:33:09;6.18;;;5.18;;
52734;SDS011;38631;47.572;10.704;2023-06-26T01:35:36;7.95;;;5.13;;
52734;SDS011;38631;47.572;10.704;2023-06-26T01:38:11;7.60;;;5.30;;
52734;SDS011;38631;47.572;10.704;2023-06-26T01:40:48;7.68;;;5.65;;
52734;SDS011;38631;47.572;10.704;2023-06-26T01:43:24;8.35;;;5.90;;
52734;SDS011;38631;47.572;10.704;2023-06-26T01:46:18;8.38;;;5.40;;
52734;SDS011;38631;47.572;10.704;2023-06-26T01:48:59;7.28;;;5.70;;
52734;SDS011;38631;47.572;10.704;2023-06-26T01:51:38;9.63;;;6.57;;
52734;SDS011;38631;47.572;10.704;2023-06-26T01:54:13;8.00;;;5.72;;
52734;SDS011;38631;47.572;10.704;2023-06-26T01:56:42;9.27;;;6.10;;
52734;SDS011;38631;47.572;10.704;2023-06-26T01:59:09;6.70;;;5.20;;
52734;SDS011;38631;47.572;10.704;2023-06-26T02:01:38;7.35;;;5.82;;
52734;SDS011;38631;47.572;10.704;2023-06-26T02:04:04;8.68;;;5.95;;
52734;SDS011;38631;47.572;10.704;2023-06-26T02:06:29;7.93;;;5.63;;
52734;SDS011;38631;47.572;10.704;2023-06-26T02:08:55;7.13;;;5.25;;
52734;SDS011;38631;47.572;10.704;2023-06-26T02:11:21;8.32;;;5.72;;
52734;SDS011;38631;47.572;10.704;2023-06-26T02:13:47;7.85;;;5.70;;
52734;SDS011;38631;47.572;10.704;2023-06-26T02:16:12;7.35;;;5.28;;
52734;SDS011;38631;47.572;10.704;2023-06-26T02:18:38;8.45;;;5.95;;
52734;SDS011;38631;47.572;10.704;2023-06-26T02:21:03;8.23;;;5.68;;
52734;SDS011;38631;47.572;10.704;2023-06-26T02:23:29;6.63;;;4.93;;
52734;SDS011;38631;47.572;10.704;2023-06-26T02:25:54;7.82;;;5.45;;
52734;SDS011;38631;47.572;10.704;2023-06-26T02:28:20;8.20;;;5.50;;
52734;SDS011;38631;47.572;10.704;2023-06-26T02:30:45;7.40;;;5.05;;
52734;SDS011;38631;47.572;10.704;2023-06-26T02:33:10;8.30;;;5.28;;
52734;SDS011;38631;47.572;10.704;2023-06-26T02:35:36;8.18;;;5.45;;
52734;SDS011;38631;47.572;10.704;2023-06-26T02:38:01;7.65;;;5.72;;
52734;SDS011;38631;47.572;10.704;2023-06-26T02:40:26;7.80;;;5.75;;
52734;SDS011;38631;47.572;10.704;2023-06-26T02:42:52;6.90;;;5.20;;
52734;SDS011;38631;47.572;10.704;2023-06-26T02:45:17;8.45;;;5.28;;
52734;SDS011;38631;47.572;10.704;2023-06-26T02:47:43;9.00;;;5.88;;
52734;SDS011;38631;47.572;10.704;2023-06-26T02:50:08;6.75;;;5.10;;
52734;SDS011;38631;47.572;10.704;2023-06-26T02:52:34;6.00;;;5.03;;
52734;SDS011;38631;47.572;10.704;2023-06-26T02:54:59;9.38;;;6.05;;
52734;SDS011;38631;47.572;10.704;2023-06-26T02:57:25;6.82;;;5.38;;
52734;SDS011;38631;47.572;10.704;2023-06-26T02:59:50;7.65;;;5.45;;
52734;SDS011;38631;47.572;10.704;2023-06-26T03:02:15;6.85;;;5.32;;
52734;SDS011;38631;47.572;10.704;2023-06-26T03:04:41;7.15;;;5.40;;
52734;SDS011;38631;47.572;10.704;2023-06-26T03:07:09;7.60;;;5.45;;
52734;SDS011;38631;47.572;10.704;2023-06-26T03:09:34;7.68;;;5.50;;
52734;SDS011;38631;47.572;10.704;2023-06-26T03:11:59;6.55;;;5.00;;
52734;SDS011;38631;47.572;10.704;2023-06-26T03:14:25;7.88;;;5.05;;
52734;SDS011;38631;47.572;10.704;2023-06-26T03:16:52;6.50;;;4.93;;
52734;SDS011;38631;47.572;10.704;2023-06-26T03:19:17;6.97;;;5.25;;
52734;SDS011;38631;47.572;10.704;2023-06-26T03:21:43;6.53;;;5.45;;
52734;SDS011;38631;47.572;10.704;2023-06-26T03:24:09;7.60;;;5.80;;
52734;SDS011;38631;47.572;10.704;2023-06-26T03:26:34;7.38;;;5.78;;
52734;SDS011;38631;47.572;10.704;2023-06-26T03:28:59;7.82;;;5.68;;
52734;SDS011;38631;47.572;10.704;2023-06-26T03:31:25;7.95;;;5.53;;
52734;SDS011;38631;47.572;10.704;2023-06-26T03:33:50;7.28;;;5.35;;
52734;SDS011;38631;47.572;10.704;2023-06-26T03:36:16;7.13;;;4.88;;
52734;SDS011;38631;47.572;10.704;2023-06-26T03:38:41;8.43;;;5.15;;
52734;SDS011;38631;47.572;10.704;2023-06-26T03:41:06;7.65;;;5.20;;
52734;SDS011;38631;47.572;10.704;2023-06-26T03:43:32;7.32;;;4.90;;
52734;SDS011;38631;47.572;10.704;2023-06-26T03:45:57;6.18;;;4.57;;
52734;SDS011;38631;47.572;10.704;2023-06-26T03:48:23;6.75;;;4.82;;
52734;SDS011;38631;47.572;10.704;2023-06-26T03:50:48;6.65;;;4.80;;
52734;SDS011;38631;47.572;10.704;2023-06-26T03:53:14;7.03;;;4.95;;
52734;SDS011;38631;47.572;10.704;2023-06-26T03:55:39;8.00;;;5.70;;
52734;SDS011;38631;47.572;10.704;2023-06-26T03:58:05;6.28;;;4.60;;
52734;SDS011;38631;47.572;10.704;2023-06-26T04:00:30;6.78;;;4.88;;
52734;SDS011;38631;47.572;10.704;2023-06-26T04:02:56;9.50;;;5.95;;
52734;SDS011;38631;47.572;10.704;2023-06-26T04:05:22;6.60;;;4.97;;
52734;SDS011;38631;47.572;10.704;2023-06-26T04:07:51;7.40;;;5.18;;
52734;SDS011;38631;47.572;10.704;2023-06-26T04:10:17;10.98;;;5.88;;
52734;SDS011;38631;47.572;10.704;2023-06-26T04:12:43;7.95;;;5.78;;
52734;SDS011;38631;47.572;10.704;2023-06-26T04:15:09;7.47;;;5.55;;
52734;SDS011;38631;47.572;10.704;2023-06-26T04:17:34;7.80;;;5.63;;
52734;SDS011;38631;47.572;10.704;2023-06-26T04:20:00;7.25;;;5.20;;
52734;SDS011;38631;47.572;10.704;2023-06-26T04:22:25;7.35;;;5.35;;
52734;SDS011;38631;47.572;10.704;2023-06-26T04:24:51;6.60;;;5.47;;
52734;SDS011;38631;47.572;10.704;2023-06-26T04:27:17;7.00;;;5.10;;
52734;SDS011;38631;47.572;10.704;2023-06-26T04:29:43;7.72;;;5.15;;
52734;SDS011;38631;47.572;10.704;2023-06-26T04:32:08;6.15;;;4.40;;
52734;SDS011;38631;47.572;10.704;2023-06-26T04:34:34;7.05;;;4.95;;
52734;SDS011;38631;47.572;10.704;2023-06-26T04:37:00;7.03;;;5.40;;
52734;SDS011;38631;47.572;10.704;2023-06-26T04:39:28;7.78;;;5.40;;
52734;SDS011;38631;47.572;10.704;2023-06-26T04:41:55;8.68;;;5.50;;
52734;SDS011;38631;47.572;10.704;2023-06-26T04:44:20;7.57;;;5.43;;
52734;SDS011;38631;47.572;10.704;2023-06-26T04:46:46;7.22;;;5.25;;
52734;SDS011;38631;47.572;10.704;2023-06-26T04:49:11;6.55;;;5.00;;
52734;SDS011;38631;47.572;10.704;2023-06-26T04:51:36;6.50;;;5.22;;
52734;SDS011;38631;47.572;10.704;2023-06-26T04:54:08;6.63;;;4.97;;
52734;SDS011;38631;47.572;10.704;2023-06-26T04:56:35;7.25;;;5.40;;
52734;SDS011;38631;47.572;10.704;2023-06-26T04:59:00;8.50;;;5.43;;
52734;SDS011;38631;47.572;10.704;2023-06-26T05:01:26;6.85;;;5.07;;
52734;SDS011;38631;47.572;10.704;2023-06-26T05:03:54;6.63;;;5.10;;
52734;SDS011;38631;47.572;10.704;2023-06-26T05:06:20;7.43;;;5.03;;
52734;SDS011;38631;47.572;10.704;2023-06-26T05:08:45;6.65;;;5.20;;
52734;SDS011;38631;47.572;10.704;2023-06-26T05:11:10;6.43;;;4.82;;
52734;SDS011;38631;47.572;10.704;2023-06-26T05:13:36;5.65;;;4.70;;
52734;SDS011;38631;47.572;10.704;2023-06-26T05:16:01;6.47;;;4.75;;
52734;SDS011;38631;47.572;10.704;2023-06-26T05:18:26;6.43;;;4.80;;
52734;SDS011;38631;47.572;10.704;2023-06-26T05:20:52;6.95;;;5.00;;
52734;SDS011;38631;47.572;10.704;2023-06-26T05:23:17;6.10;;;4.55;;
52734;SDS011;38631;47.572;10.704;2023-06-26T05:25:44;6.90;;;4.63;;
52734;SDS011;38631;47.572;10.704;2023-06-26T05:28:10;8.38;;;5.25;;
52734;SDS011;38631;47.572;10.704;2023-06-26T05:30:37;7.25;;;4.93;;
52734;SDS011;38631;47.572;10.704;2023-06-26T05:33:02;5.72;;;4.55;;
52734;SDS011;38631;47.572;10.704;2023-06-26T05:35:29;5.85;;;4.25;;
52734;SDS011;38631;47.572;10.704;2023-06-26T05:37:55;6.63;;;5.00;;
52734;SDS011;38631;47.572;10.704;2023-06-26T05:40:21;7.22;;;5.50;;
52734;SDS011;38631;47.572;10.704;2023-06-26T05:42:47;6.38;;;4.63;;
52734;SDS011;38631;47.572;10.704;2023-06-26T05:45:13;6.72;;;4.32;;
52734;SDS011;38631;47.572;10.704;2023-06-26T05:47:39;6.35;;;4.70;;
52734;SDS011;38631;47.572;10.704;2023-06-26T05:50:04;6.50;;;4.55;;
52734;SDS011;38631;47.572;10.704;2023-06-26T05:52:31;6.15;;;4.18;;
52734;SDS011;38631;47.572;10.704;2023-06-26T05:54:56;7.07;;;4.70;;
52734;SDS011;38631;47.572;10.704;2023-06-26T05:57:26;6.20;;;4.50;;
52734;SDS011;38631;47.572;10.704;2023-06-26T05:59:53;6.05;;;4.47;;
52734;SDS011;38631;47.572;10.704;2023-06-26T06:02:18;6.13;;;4.38;;
52734;SDS011;38631;47.572;10.704;2023-06-26T06:04:44;6.30;;;4.43;;
52734;SDS011;38631;47.572;10.704;2023-06-26T06:07:09;8.90;;;4.82;;
52734;SDS011;38631;47.572;10.704;2023-06-26T06:09:35;5.75;;;4.38;;
52734;SDS011;38631;47.572;10.704;2023-06-26T06:12:04;7.55;;;4.10;;
52734;SDS011;38631;47.572;10.704;2023-06-26T06:14:31;6.03;;;4.63;;
52734;SDS011;38631;47.572;10.704;2023-06-26T06:17:01;5.47;;;4.43;;
52734;SDS011;38631;47.572;10.704;2023-06-26T06:19:28;7.35;;;4.05;;
52734;SDS011;38631;47.572;10.704;2023-06-26T06:21:56;4.28;;;3.85;;
52734;SDS011;38631;47.572;10.704;2023-06-26T06:24:24;8.70;;;4.65;;
52734;SDS011;38631;47.572;10.704;2023-06-26T06:26:52;6.50;;;4.97;;
52734;SDS011;38631;47.572;10.704;2023-06-26T06:29:22;5.55;;;4.40;;
52734;SDS011;38631;47.572;10.704;2023-06-26T06:31:53;6.60;;;4.95;;
52734;SDS011;38631;47.572;10.704;2023-06-26T06:34:19;5.13;;;3.80;;
52734;SDS011;38631;47.572;10.704;2023-06-26T06:36:50;6.20;;;4.55;;
52734;SDS011;38631;47.572;10.704;2023-06-26T06:39:24;5.80;;;4.70;;
52734;SDS011;38631;47.572;10.704;2023-06-26T06:41:51;5.17;;;4.23;;
52734;SDS011;38631;47.572;10.704;2023-06-26T06:44:20;5.60;;;4.00;;
52734;SDS011;38631;47.572;10.704;2023-06-26T06:46:49;6.32;;;3.95;;
52734;SDS011;38631;47.572;10.704;2023-06-26T06:49:18;6.47;;;4.40;;
52734;SDS011;38631;47.572;10.704;2023-06-26T06:51:47;6.10;;;4.13;;
52734;SDS011;38631;47.572;10.704;2023-06-26T06:54:16;8.75;;;3.95;;
52734;SDS011;38631;47.572;10.704;2023-06-26T06:56:42;7.18;;;4.85;;
52734;SDS011;38631;47.572;10.704;2023-06-26T06:59:08;5.63;;;4.45;;
52734;SDS011;38631;47.572;10.704;2023-06-26T07:01:44;5.10;;;3.95;;
52734;SDS011;38631;47.572;10.704;2023-06-26T07:04:09;7.53;;;4.40;;
52734;SDS011;38631;47.572;10.704;2023-06-26T07:06:35;5.07;;;4.32;;
52734;SDS011;38631;47.572;10.704;2023-06-26T07:09:03;5.85;;;4.18;;
52734;SDS011;38631;47.572;10.704;2023-06-26T07:11:37;6.72;;;4.65;;
52734;SDS011;38631;47.572;10.704;2023-06-26T07:14:06;5.90;;;4.55;;
52734;SDS011;38631;47.572;10.704;2023-06-26T07:16:31;6.53;;;4.38;;
52734;SDS011;38631;47.572;10.704;2023-06-26T07:19:00;5.18;;;3.95;;
52734;SDS011;38631;47.572;10.704;2023-06-26T07:23:59;4.90;;;3.90;;
52734;SDS011;38631;47.572;10.704;2023-06-26T07:26:52;5.65;;;3.85;;
52734;SDS011;38631;47.572;10.704;2023-06-26T07:29:17;4.65;;;3.65;;
52734;SDS011;38631;47.572;10.704;2023-06-26T07:31:43;7.03;;;3.95;;
52734;SDS011;38631;47.572;10.704;2023-06-26T07:34:10;4.70;;;3.55;;
52734;SDS011;38631;47.572;10.704;2023-06-26T07:36:35;4.85;;;3.47;;
52734;SDS011;38631;47.572;10.704;2023-06-26T07:39:01;5.68;;;4.07;;
52734;SDS011;38631;47.572;10.704;2023-06-26T07:41:26;4.28;;;3.28;;
52734;SDS011;38631;47.572;10.704;2023-06-26T07:43:54;4.38;;;3.50;;
52734;SDS011;38631;47.572;10.704;2023-06-26T07:46:19;6.38;;;3.38;;
52734;SDS011;38631;47.572;10.704;2023-06-26T07:48:45;4.18;;;3.42;;
52734;SDS011;38631;47.572;10.704;2023-06-26T07:51:10;4.75;;;3.80;;
52734;SDS011;38631;47.572;10.704;2023-06-26T07:53:35;5.57;;;3.28;;
52734;SDS011;38631;47.572;10.704;2023-06-26T07:56:01;4.95;;;3.80;;
52734;SDS011;38631;47.572;10.704;2023-06-26T07:58:26;4.82;;;3.63;;
52734;SDS011;38631;47.572;10.704;2023-06-26T08:00:51;4.75;;;3.22;;
52734;SDS011;38631;47.572;10.704;2023-06-26T08:03:17;4.57;;;3.75;;
52734;SDS011;38631;47.572;10.704;2023-06-26T08:05:42;5.80;;;4.15;;
52734;SDS011;38631;47.572;10.704;2023-06-26T08:08:07;4.80;;;3.47;;
52734;SDS011;38631;47.572;10.704;2023-06-26T08:10:33;5.18;;;4.00;;
52734;SDS011;38631;47.572;10.704;2023-06-26T08:12:59;4.80;;;3.45;;
52734;SDS011;38631;47.572;10.704;2023-06-26T08:15:24;4.68;;;3.08;;
52734;SDS011;38631;47.572;10.704;2023-06-26T08:17:50;5.07;;;3.85;;
52734;SDS011;38631;47.572;10.704;2023-06-26T08:20:15;4.47;;;3.40;;
52734;SDS011;38631;47.572;10.704;2023-06-26T08:22:41;4.45;;;3.65;;
52734;SDS011;38631;47.572;10.704;2023-06-26T08:25:06;4.57;;;3.47;;
52734;SDS011;38631;47.572;10.704;2023-06-26T08:27:32;4.13;;;3.17;;
52734;SDS011;38631;47.572;10.704;2023-06-26T08:29:57;5.22;;;3.90;;
52734;SDS011;38631;47.572;10.704;2023-06-26T08:32:23;4.82;;;3.80;;
52734;SDS011;38631;47.572;10.704;2023-06-26T08:34:49;6.00;;;3.38;;
52734;SDS011;38631;47.572;10.704;2023-06-26T08:37:15;5.05;;;3.33;;
52734;SDS011;38631;47.572;10.704;2023-06-26T08:39:41;3.60;;;3.20;;
52734;SDS011;38631;47.572;10.704;2023-06-26T08:42:06;4.93;;;3.25;;
52734;SDS011;38631;47.572;10.704;2023-06-26T08:44:31;4.47;;;3.63;;
52734;SDS011;38631;47.572;10.704;2023-06-26T08:46:59;4.75;;;2.90;;
52734;SDS011;38631;47.572;10.704;2023-06-26T08:49:28;4.75;;;3.58;;
52734;SDS011;38631;47.572;10.704;2023-06-26T08:52:02;4.35;;;3.30;;
52734;SDS011;38631;47.572;10.704;2023-06-26T08:54:36;4.32;;;3.50;;
52734;SDS011;38631;47.572;10.704;2023-06-26T08:57:08;5.90;;;3.83;;
52734;SDS011;38631;47.572;10.704;2023-06-26T08:59:33;4.53;;;3.33;;
52734;SDS011;38631;47.572;10.704;2023-06-26T09:01:59;4.47;;;3.67;;
52734;SDS011;38631;47.572;10.704;2023-06-26T09:04:25;5.55;;;3.88;;
52734;SDS011;38631;47.572;10.704;2023-06-26T09:06:50;3.83;;;3.03;;
52734;SDS011;38631;47.572;10.704;2023-06-26T09:09:16;4.78;;;3.50;;
52734;SDS011;38631;47.572;10.704;2023-06-26T09:11:41;5.60;;;3.60;;
52734;SDS011;38631;47.572;10.704;2023-06-26T09:14:06;4.03;;;3.50;;
52734;SDS011;38631;47.572;10.704;2023-06-26T09:16:39;7.32;;;3.80;;
52734;SDS011;38631;47.572;10.704;2023-06-26T09:19:08;4.10;;;3.40;;
52734;SDS011;38631;47.572;10.704;2023-06-26T09:21:36;5.60;;;3.15;;
52734;SDS011;38631;47.572;10.704;2023-06-26T09:24:01;3.63;;;2.95;;
52734;SDS011;38631;47.572;10.704;2023-06-26T09:26:26;4.95;;;3.63;;
52734;SDS011;38631;47.572;10.704;2023-06-26T09:28:52;4.70;;;3.35;;
52734;SDS011;38631;47.572;10.704;2023-06-26T09:31:18;3.92;;;3.17;;
52734;SDS011;38631;47.572;10.704;2023-06-26T09:33:46;4.25;;;3.55;;
52734;SDS011;38631;47.572;10.704;2023-06-26T09:36:19;5.18;;;3.22;;
52734;SDS011;38631;47.572;10.704;2023-06-26T09:38:49;5.25;;;3.17;;
52734;SDS011;38631;47.572;10.704;2023-06-26T09:41:16;5.72;;;3.40;;
52734;SDS011;38631;47.572;10.704;2023-06-26T09:43:49;7.75;;;3.65;;
52734;SDS011;38631;47.572;10.704;2023-06-26T09:46:25;5.13;;;3.70;;
52734;SDS011;38631;47.572;10.704;2023-06-26T09:49:01;4.47;;;3.53;;
52734;SDS011;38631;47.572;10.704;2023-06-26T09:51:36;4.68;;;3.28;;
52734;SDS011;38631;47.572;10.704;2023-06-26T09:54:03;4.90;;;3.47;;
52734;SDS011;38631;47.572;10.704;2023-06-26T09:56:30;4.47;;;3.42;;
52734;SDS011;38631;47.572;10.704;2023-06-26T09:58:57;4.63;;;3.40;;
52734;SDS011;38631;47.572;10.704;2023-06-26T10:01:23;3.83;;;3.08;;
52734;SDS011;38631;47.572;10.704;2023-06-26T10:03:49;4.15;;;3.53;;
52734;SDS011;38631;47.572;10.704;2023-06-26T10:06:15;3.83;;;3.20;;
52734;SDS011;38631;47.572;10.704;2023-06-26T10:08:44;4.32;;;3.50;;
52734;SDS011;38631;47.572;10.704;2023-06-26T10:11:11;4.55;;;3.25;;
52734;SDS011;38631;47.572;10.704;2023-06-26T10:13:42;4.28;;;3.17;;
52734;SDS011;38631;47.572;10.704;2023-06-26T10:16:11;4.00;;;3.10;;
52734;SDS011;38631;47.572;10.704;2023-06-26T10:18:36;4.22;;;3.15;;
52734;SDS011;38631;47.572;10.704;2023-06-26T10:21:04;3.40;;;2.80;;
52734;SDS011;38631;47.572;10.704;2023-06-26T10:23:31;4.30;;;3.28;;
52734;SDS011;38631;47.572;10.704;2023-06-26T10:25:58;3.70;;;2.95;;
52734;SDS011;38631;47.572;10.704;2023-06-26T10:28:28;5.13;;;2.97;;
52734;SDS011;38631;47.572;10.704;2023-06-26T10:31:05;5.18;;;3.33;;
52734;SDS011;38631;47.572;10.704;2023-06-26T10:33:34;3.92;;;3.20;;
52734;SDS011;38631;47.572;10.704;2023-06-26T10:36:19;4.97;;;3.60;;
52734;SDS011;38631;47.572;10.704;2023-06-26T10:38:55;4.82;;;3.47;;
52734;SDS011;38631;47.572;10.704;2023-06-26T10:41:25;4.40;;;3.50;;
52734;SDS011;38631;47.572;10.704;2023-06-26T10:44:08;4.93;;;3.30;;
52734;SDS011;38631;47.572;10.704;2023-06-26T10:46:50;4.93;;;3.70;;
52734;SDS011;38631;47.572;10.704;2023-06-26T10:49:21;5.05;;;3.22;;
52734;SDS011;38631;47.572;10.704;2023-06-26T10:51:51;4.35;;;3.70;;
52734;SDS011;38631;47.572;10.704;2023-06-26T10:54:17;5.97;;;3.50;;
52734;SDS011;38631;47.572;10.704;2023-06-26T10:56:45;7.10;;;3.65;;
52734;SDS011;38631;47.572;10.704;2023-06-26T10:59:15;4.93;;;3.67;;
52734;SDS011;38631;47.572;10.704;2023-06-26T11:01:45;4.25;;;3.47;;
52734;SDS011;38631;47.572;10.704;2023-06-26T11:04:18;5.22;;;3.50;;
52734;SDS011;38631;47.572;10.704;2023-06-26T11:06:45;5.15;;;3.83;;
52734;SDS011;38631;47.572;10.704;2023-06-26T11:09:14;4.30;;;3.30;;
52734;SDS011;38631;47.572;10.704;2023-06-26T11:14:30;5.38;;;3.80;;
52734;SDS011;38631;47.572;10.704;2023-06-26T11:16:56;5.07;;;3.72;;
52734;SDS011;38631;47.572;10.704;2023-06-26T11:19:25;4.72;;;3.47;;
52734;SDS011;38631;47.572;10.704;2023-06-26T11:21:56;5.65;;;4.35;;
52734;SDS011;38631;47.572;10.704;2023-06-26T11:24:29;5.60;;;4.15;;
52734;SDS011;38631;47.572;10.704;2023-06-26T11:26:54;6.55;;;3.97;;
52734;SDS011;38631;47.572;10.704;2023-06-26T11:29:25;5.53;;;3.70;;
52734;SDS011;38631;47.572;10.704;2023-06-26T11:31:57;4.78;;;3.88;;
52734;SDS011;38631;47.572;10.704;2023-06-26T11:34:23;4.88;;;4.20;;
52734;SDS011;38631;47.572;10.704;2023-06-26T11:36:50;5.60;;;4.03;;
52734;SDS011;38631;47.572;10.704;2023-06-26T11:39:16;5.70;;;4.78;;
52734;SDS011;38631;47.572;10.704;2023-06-26T11:41:41;5.90;;;4.28;;
52734;SDS011;38631;47.572;10.704;2023-06-26T11:44:07;5.35;;;4.22;;
52734;SDS011;38631;47.572;10.704;2023-06-26T11:46:39;5.60;;;4.45;;
52734;SDS011;38631;47.572;10.704;2023-06-26T11:49:07;6.25;;;4.28;;
52734;SDS011;38631;47.572;10.704;2023-06-26T11:51:33;7.70;;;4.22;;
52734;SDS011;38631;47.572;10.704;2023-06-26T11:54:01;6.50;;;4.80;;
52734;SDS011;38631;47.572;10.704;2023-06-26T11:58:56;5.40;;;3.92;;
52734;SDS011;38631;47.572;10.704;2023-06-26T12:01:26;5.00;;;4.13;;
52734;SDS011;38631;47.572;10.704;2023-06-26T12:03:58;7.18;;;4.10;;
52734;SDS011;38631;47.572;10.704;2023-06-26T12:06:25;5.43;;;4.50;;
52734;SDS011;38631;47.572;10.704;2023-06-26T12:08:51;4.43;;;3.67;;
52734;SDS011;38631;47.572;10.704;2023-06-26T12:11:17;4.95;;;3.60;;
52734;SDS011;38631;47.572;10.704;2023-06-26T12:13:44;5.65;;;4.00;;
52734;SDS011;38631;47.572;10.704;2023-06-26T12:16:11;4.85;;;4.05;;
52734;SDS011;38631;47.572;10.704;2023-06-26T12:18:37;4.85;;;4.00;;
52734;SDS011;38631;47.572;10.704;2023-06-26T12:21:03;5.32;;;3.72;;
52734;SDS011;38631;47.572;10.704;2023-06-26T12:23:32;5.55;;;4.13;;
52734;SDS011;38631;47.572;10.704;2023-06-26T12:25:59;6.03;;;4.18;;
52734;SDS011;38631;47.572;10.704;2023-06-26T12:28:40;5.80;;;4.40;;
52734;SDS011;38631;47.572;10.704;2023-06-26T12:31:15;5.63;;;4.70;;
52734;SDS011;38631;47.572;10.704;2023-06-26T12:33:44;7.43;;;4.60;;
52734;SDS011;38631;47.572;10.704;2023-06-26T12:36:10;4.85;;;3.83;;
52734;SDS011;38631;47.572;10.704;2023-06-26T12:38:40;6.50;;;4.60;;
52734;SDS011;38631;47.572;10.704;2023-06-26T12:41:11;5.88;;;4.40;;
52734;SDS011;38631;47.572;10.704;2023-06-26T12:43:38;5.65;;;4.60;;
52734;SDS011;38631;47.572;10.704;2023-06-26T12:46:03;6.13;;;4.85;;
52734;SDS011;38631;47.572;10.704;2023-06-26T12:51:14;5.50;;;4.30;;
52734;SDS011;38631;47.572;10.704;2023-06-26T12:53:43;5.30;;;4.55;;
52734;SDS011;38631;47.572;10.704;2023-06-26T12:56:09;6.03;;;4.45;;
52734;SDS011;38631;47.572;10.704;2023-06-26T12:58:36;5.80;;;4.32;;
52734;SDS011;38631;47.572;10.704;2023-06-26T13:01:05;6.85;;;4.80;;
52734;SDS011;38631;47.572;10.704;2023-06-26T13:03:38;5.15;;;4.13;;
52734;SDS011;38631;47.572;10.704;2023-06-26T13:06:04;6.07;;;4.35;;
52734;SDS011;38631;47.572;10.704;2023-06-26T13:08:29;5.72;;;4.43;;
52734;SDS011;38631;47.572;10.704;2023-06-26T13:10:54;6.07;;;4.13;;
52734;SDS011;38631;47.572;10.704;2023-06-26T13:13:20;6.00;;;4.57;;
52734;SDS011;38631;47.572;10.704;2023-06-26T13:15:45;6.07;;;4.85;;
52734;SDS011;38631;47.572;10.704;2023-06-26T13:18:10;6.75;;;4.45;;
52734;SDS011;38631;47.572;10.704;2023-06-26T13:20:36;6.03;;;4.15;;
52734;SDS011;38631;47.572;10.704;2023-06-26T13:23:01;6.57;;;4.55;;
52734;SDS011;38631;47.572;10.704;2023-06-26T13:25:27;5.63;;;4.18;;
52734;SDS011;38631;47.572;10.704;2023-06-26T13:27:53;6.45;;;4.45;;
52734;SDS011;38631;47.572;10.704;2023-06-26T13:30:18;5.97;;;4.63;;
52734;SDS011;38631;47.572;10.704;2023-06-26T13:32:43;6.88;;;4.30;;
52734;SDS011;38631;47.572;10.704;2023-06-26T13:35:09;6.03;;;4.25;;
52734;SDS011;38631;47.572;10.704;2023-06-26T13:37:34;8.02;;;4.38;;
52734;SDS011;38631;47.572;10.704;2023-06-26T13:40:01;6.95;;;4.43;;
52734;SDS011;38631;47.572;10.704;2023-06-26T13:42:27;7.65;;;3.83;;
52734;SDS011;38631;47.572;10.704;2023-06-26T13:44:53;6.10;;;4.20;;
52734;SDS011;38631;47.572;10.704;2023-06-26T13:47:19;5.13;;;3.92;;
52734;SDS011;38631;47.572;10.704;2023-06-26T13:49:44;6.03;;;4.38;;
52734;SDS011;38631;47.572;10.704;2023-06-26T13:52:10;5.25;;;3.88;;
52734;SDS011;38631;47.572;10.704;2023-06-26T13:54:35;7.45;;;4.10;;
52734;SDS011;38631;47.572;10.704;2023-06-26T13:57:05;5.60;;;4.30;;
52734;SDS011;38631;47.572;10.704;2023-06-26T13:59:31;5.85;;;4.45;;
52734;SDS011;38631;47.572;10.704;2023-06-26T14:01:57;7.80;;;4.53;;
52734;SDS011;38631;47.572;10.704;2023-06-26T14:04:23;8.40;;;4.63;;
52734;SDS011;38631;47.572;10.704;2023-06-26T14:06:49;6.90;;;4.20;;
52734;SDS011;38631;47.572;10.704;2023-06-26T14:09:14;6.30;;;3.90;;
52734;SDS011;38631;47.572;10.704;2023-06-26T14:11:40;5.85;;;3.55;;
52734;SDS011;38631;47.572;10.704;2023-06-26T14:14:05;5.10;;;4.03;;
52734;SDS011;38631;47.572;10.704;2023-06-26T14:16:32;5.47;;;4.47;;
52734;SDS011;38631;47.572;10.704;2023-06-26T14:18:57;5.95;;;4.47;;
52734;SDS011;38631;47.572;10.704;2023-06-26T14:21:23;5.60;;;4.00;;
52734;SDS011;38631;47.572;10.704;2023-06-26T14:23:49;5.60;;;4.07;;
52734;SDS011;38631;47.572;10.704;2023-06-26T14:26:14;6.72;;;4.38;;
52734;SDS011;38631;47.572;10.704;2023-06-26T14:28:39;5.85;;;3.80;;
52734;SDS011;38631;47.572;10.704;2023-06-26T14:31:05;5.85;;;4.35;;
52734;SDS011;38631;47.572;10.704;2023-06-26T14:33:31;6.03;;;4.05;;
52734;SDS011;38631;47.572;10.704;2023-06-26T14:35:56;7.95;;;4.35;;
52734;SDS011;38631;47.572;10.704;2023-06-26T14:38:22;7.30;;;4.35;;
52734;SDS011;38631;47.572;10.704;2023-06-26T14:40:47;5.65;;;4.03;;
52734;SDS011;38631;47.572;10.704;2023-06-26T14:43:12;7.53;;;4.85;;
52734;SDS011;38631;47.572;10.704;2023-06-26T14:45:38;6.55;;;4.45;;
52734;SDS011;38631;47.572;10.704;2023-06-26T14:48:03;5.45;;;4.43;;
52734;SDS011;38631;47.572;10.704;2023-06-26T14:50:29;7.60;;;4.60;;